sensor_id;sensor_type;location;lat;lon;timestamp;pressure;altitude;pressure_sealevel;temperature
61977;BMP280;45905;50.570;10.428;2022-09-01T00:00:05;98385.69;;;16.00
61977;BMP280;45905;50.570;10.428;2022-09-01T00:02:33;98380.91;;;15.97
61977;BMP280;45905;50.570;10.428;2022-09-01T00:05:02;98385.53;;;15.94
61977;BMP280;45905;50.570;10.428;2022-09-01T00:07:32;98380.78;;;15.91
61977;BMP280;45905;50.570;10.428;2022-09-01T00:10:04;98376.81;;;15.88
61977;BMP280;45905;50.570;10.428;2022-09-01T00:12:32;98379.72;;;15.85
61977;BMP280;45905;50.570;10.428;2022-09-01T00:14:59;98381.06;;;15.82
61977;BMP280;45905;50.570;10.428;2022-09-01T00:17:26;98380.59;;;15.78
61977;BMP280;45905;50.570;10.428;2022-09-01T00:19:54;98391.94;;;15.76
61977;BMP280;45905;50.570;10.428;2022-09-01T00:22:21;98382.91;;;15.73
61977;BMP280;45905;50.570;10.428;2022-09-01T00:24:48;98387.56;;;15.70
61977;BMP280;45905;50.570;10.428;2022-09-01T00:27:16;98386.34;;;15.66
61977;BMP280;45905;50.570;10.428;2022-09-01T00:29:43;98387.47;;;15.64
61977;BMP280;45905;50.570;10.428;2022-09-01T00:32:11;98392.13;;;15.60
61977;BMP280;45905;50.570;10.428;2022-09-01T00:34:40;98397.59;;;15.57
61977;BMP280;45905;50.570;10.428;2022-09-01T00:37:07;98391.06;;;15.55
61977;BMP280;45905;50.570;10.428;2022-09-01T00:39:34;98391.25;;;15.53
61977;BMP280;45905;50.570;10.428;2022-09-01T00:42:03;98393.16;;;15.51
61977;BMP280;45905;50.570;10.428;2022-09-01T00:44:30;98392.53;;;15.49
61977;BMP280;45905;50.570;10.428;2022-09-01T00:46:58;98387.63;;;15.48
61977;BMP280;45905;50.570;10.428;2022-09-01T00:49:40;98387.78;;;15.46
61977;BMP280;45905;50.570;10.428;2022-09-01T00:52:34;98385.59;;;15.44
61977;BMP280;45905;50.570;10.428;2022-09-01T00:55:11;98384.00;;;15.43
61977;BMP280;45905;50.570;10.428;2022-09-01T00:57:39;98396.13;;;15.41
61977;BMP280;45905;50.570;10.428;2022-09-01T01:02:42;98397.47;;;15.37
61977;BMP280;45905;50.570;10.428;2022-09-01T01:05:12;98391.72;;;15.35
61977;BMP280;45905;50.570;10.428;2022-09-01T01:07:43;98390.13;;;15.34
61977;BMP280;45905;50.570;10.428;2022-09-01T01:10:17;98386.00;;;15.33
61977;BMP280;45905;50.570;10.428;2022-09-01T01:12:45;98379.94;;;15.34
61977;BMP280;45905;50.570;10.428;2022-09-01T01:15:14;98380.72;;;15.34
61977;BMP280;45905;50.570;10.428;2022-09-01T01:17:41;98380.88;;;15.33
61977;BMP280;45905;50.570;10.428;2022-09-01T01:20:13;98376.56;;;15.33
61977;BMP280;45905;50.570;10.428;2022-09-01T01:26:05;98378.34;;;15.33
61977;BMP280;45905;50.570;10.428;2022-09-01T01:28:38;98382.84;;;15.31
61977;BMP280;45905;50.570;10.428;2022-09-01T01:31:09;98377.91;;;15.29
61977;BMP280;45905;50.570;10.428;2022-09-01T01:33:47;98379.03;;;15.27
61977;BMP280;45905;50.570;10.428;2022-09-01T01:36:24;98380.97;;;15.25
61977;BMP280;45905;50.570;10.428;2022-09-01T01:39:10;98374.25;;;15.24
61977;BMP280;45905;50.570;10.428;2022-09-01T01:41:41;98373.66;;;15.22
61977;BMP280;45905;50.570;10.428;2022-09-01T01:44:15;98373.03;;;15.20
61977;BMP280;45905;50.570;10.428;2022-09-01T01:46:48;98375.28;;;15.15
61977;BMP280;45905;50.570;10.428;2022-09-01T01:49:22;98377.25;;;15.13
61977;BMP280;45905;50.570;10.428;2022-09-01T01:51:53;98373.28;;;15.11
61977;BMP280;45905;50.570;10.428;2022-09-01T01:54:26;98381.91;;;15.10
61977;BMP280;45905;50.570;10.428;2022-09-01T01:56:55;98375.19;;;15.09
61977;BMP280;45905;50.570;10.428;2022-09-01T01:59:25;98381.25;;;15.08
61977;BMP280;45905;50.570;10.428;2022-09-01T02:01:52;98376.53;;;15.05
61977;BMP280;45905;50.570;10.428;2022-09-01T02:04:20;98378.59;;;15.02
61977;BMP280;45905;50.570;10.428;2022-09-01T02:06:50;98378.78;;;15.00
61977;BMP280;45905;50.570;10.428;2022-09-01T02:09:20;98368.91;;;14.97
61977;BMP280;45905;50.570;10.428;2022-09-01T02:11:49;98382.81;;;14.95
61977;BMP280;45905;50.570;10.428;2022-09-01T02:14:23;98379.13;;;14.89
61977;BMP280;45905;50.570;10.428;2022-09-01T02:16:50;98376.31;;;14.85
61977;BMP280;45905;50.570;10.428;2022-09-01T02:19:22;98375.84;;;14.81
61977;BMP280;45905;50.570;10.428;2022-09-01T02:21:49;98382.91;;;14.79
61977;BMP280;45905;50.570;10.428;2022-09-01T02:24:22;98376.69;;;14.74
61977;BMP280;45905;50.570;10.428;2022-09-01T02:26:52;98371.78;;;14.72
61977;BMP280;45905;50.570;10.428;2022-09-01T02:29:22;98372.13;;;14.69
61977;BMP280;45905;50.570;10.428;2022-09-01T02:31:53;98370.06;;;14.65
61977;BMP280;45905;50.570;10.428;2022-09-01T02:34:23;98372.78;;;14.64
61977;BMP280;45905;50.570;10.428;2022-09-01T02:36:55;98364.69;;;14.60
61977;BMP280;45905;50.570;10.428;2022-09-01T02:39:28;98358.16;;;14.58
61977;BMP280;45905;50.570;10.428;2022-09-01T02:41:55;98371.88;;;14.57
61977;BMP280;45905;50.570;10.428;2022-09-01T02:44:26;98361.03;;;14.55
61977;BMP280;45905;50.570;10.428;2022-09-01T02:46:56;98367.47;;;14.51
61977;BMP280;45905;50.570;10.428;2022-09-01T02:49:25;98364.59;;;14.46
61977;BMP280;45905;50.570;10.428;2022-09-01T02:51:58;98361.44;;;14.44
61977;BMP280;45905;50.570;10.428;2022-09-01T02:54:31;98363.38;;;14.42
61977;BMP280;45905;50.570;10.428;2022-09-01T02:56:59;98363.53;;;14.41
61977;BMP280;45905;50.570;10.428;2022-09-01T02:59:28;98357.00;;;14.38
61977;BMP280;45905;50.570;10.428;2022-09-01T03:01:59;98354.00;;;14.35
61977;BMP280;45905;50.570;10.428;2022-09-01T03:04:27;98359.28;;;14.33
61977;BMP280;45905;50.570;10.428;2022-09-01T03:07:04;98359.59;;;14.31
61977;BMP280;45905;50.570;10.428;2022-09-01T03:09:31;98357.38;;;14.28
61977;BMP280;45905;50.570;10.428;2022-09-01T03:12:00;98364.41;;;14.26
61977;BMP280;45905;50.570;10.428;2022-09-01T03:14:27;98358.06;;;14.22
61977;BMP280;45905;50.570;10.428;2022-09-01T03:16:55;98362.50;;;14.20
61977;BMP280;45905;50.570;10.428;2022-09-01T03:19:23;98363.66;;;14.17
61977;BMP280;45905;50.570;10.428;2022-09-01T03:21:50;98363.03;;;14.15
61977;BMP280;45905;50.570;10.428;2022-09-01T03:24:22;98367.00;;;14.10
61977;BMP280;45905;50.570;10.428;2022-09-01T03:26:50;98374.06;;;14.08
61977;BMP280;45905;50.570;10.428;2022-09-01T03:29:19;98362.91;;;14.01
61977;BMP280;45905;50.570;10.428;2022-09-01T03:31:47;98371.84;;;13.97
61977;BMP280;45905;50.570;10.428;2022-09-01T03:34:14;98370.94;;;13.91
61977;BMP280;45905;50.570;10.428;2022-09-01T03:36:47;98368.06;;;13.86
61977;BMP280;45905;50.570;10.428;2022-09-01T03:39:24;98371.56;;;13.85
61977;BMP280;45905;50.570;10.428;2022-09-01T03:41:52;98371.88;;;13.82
61977;BMP280;45905;50.570;10.428;2022-09-01T03:44:19;98366.00;;;13.81
61977;BMP280;45905;50.570;10.428;2022-09-01T03:46:47;98372.19;;;13.79
61977;BMP280;45905;50.570;10.428;2022-09-01T03:49:14;98369.00;;;13.77
61977;BMP280;45905;50.570;10.428;2022-09-01T03:51:51;98364.28;;;13.74
61977;BMP280;45905;50.570;10.428;2022-09-01T03:54:23;98369.53;;;13.73
61977;BMP280;45905;50.570;10.428;2022-09-01T03:56:56;98364.91;;;13.68
61977;BMP280;45905;50.570;10.428;2022-09-01T03:59:26;98378.44;;;13.61
61977;BMP280;45905;50.570;10.428;2022-09-01T04:01:56;98367.78;;;13.57
61977;BMP280;45905;50.570;10.428;2022-09-01T04:04:25;98367.19;;;13.55
61977;BMP280;45905;50.570;10.428;2022-09-01T04:06:52;98363.03;;;13.54
61977;BMP280;45905;50.570;10.428;2022-09-01T04:09:19;98368.44;;;13.52
61977;BMP280;45905;50.570;10.428;2022-09-01T04:11:46;98360.97;;;13.50
61977;BMP280;45905;50.570;10.428;2022-09-01T04:14:18;98370.69;;;13.47
61977;BMP280;45905;50.570;10.428;2022-09-01T04:16:48;98371.00;;;13.44
61977;BMP280;45905;50.570;10.428;2022-09-01T04:19:36;98366.22;;;13.41
61977;BMP280;45905;50.570;10.428;2022-09-01T04:22:07;98370.88;;;13.37
61977;BMP280;45905;50.570;10.428;2022-09-01T04:24:42;98371.97;;;13.35
61977;BMP280;45905;50.570;10.428;2022-09-01T04:27:14;98375.78;;;13.31
61977;BMP280;45905;50.570;10.428;2022-09-01T04:29:44;98371.03;;;13.28
61977;BMP280;45905;50.570;10.428;2022-09-01T04:32:14;98377.53;;;13.23
61977;BMP280;45905;50.570;10.428;2022-09-01T04:34:47;98377.72;;;13.21
61977;BMP280;45905;50.570;10.428;2022-09-01T04:37:20;98375.34;;;13.20
61977;BMP280;45905;50.570;10.428;2022-09-01T04:39:55;98372.31;;;13.16
61977;BMP280;45905;50.570;10.428;2022-09-01T04:42:28;98376.13;;;13.13
61977;BMP280;45905;50.570;10.428;2022-09-01T04:44:58;98376.13;;;13.13
61977;BMP280;45905;50.570;10.428;2022-09-01T04:47:34;98380.59;;;13.11
61977;BMP280;45905;50.570;10.428;2022-09-01T04:50:07;98378.34;;;13.08
61977;BMP280;45905;50.570;10.428;2022-09-01T04:53:05;98390.75;;;13.03
61977;BMP280;45905;50.570;10.428;2022-09-01T04:55:40;98391.06;;;13.00
61977;BMP280;45905;50.570;10.428;2022-09-01T04:58:14;98392.97;;;12.98
61977;BMP280;45905;50.570;10.428;2022-09-01T05:00:47;98391.38;;;12.97
61977;BMP280;45905;50.570;10.428;2022-09-01T05:03:18;98388.22;;;12.95
61977;BMP280;45905;50.570;10.428;2022-09-01T05:05:58;98386.63;;;12.94
61977;BMP280;45905;50.570;10.428;2022-09-01T05:08:27;98384.09;;;12.94
61977;BMP280;45905;50.570;10.428;2022-09-01T05:11:03;98390.13;;;12.93
61977;BMP280;45905;50.570;10.428;2022-09-01T05:13:47;98386.63;;;12.94
61977;BMP280;45905;50.570;10.428;2022-09-01T05:16:19;98391.72;;;12.94
61977;BMP280;45905;50.570;10.428;2022-09-01T05:18:53;98390.13;;;12.93
61977;BMP280;45905;50.570;10.428;2022-09-01T05:21:27;98393.59;;;12.92
61977;BMP280;45905;50.570;10.428;2022-09-01T05:23:58;98398.69;;;12.92
61977;BMP280;45905;50.570;10.428;2022-09-01T05:26:31;98399.66;;;12.91
61977;BMP280;45905;50.570;10.428;2022-09-01T05:29:04;98399.50;;;12.93
61977;BMP280;45905;50.570;10.428;2022-09-01T05:31:36;98401.22;;;12.92
61977;BMP280;45905;50.570;10.428;2022-09-01T05:34:06;98395.50;;;12.90
61977;BMP280;45905;50.570;10.428;2022-09-01T05:36:41;98389.94;;;12.87
61977;BMP280;45905;50.570;10.428;2022-09-01T05:39:10;98401.22;;;12.84
61977;BMP280;45905;50.570;10.428;2022-09-01T05:41:39;98394.56;;;12.83
61977;BMP280;45905;50.570;10.428;2022-09-01T05:44:08;98392.66;;;12.85
61977;BMP280;45905;50.570;10.428;2022-09-01T05:46:37;98402.34;;;12.90
61977;BMP280;45905;50.570;10.428;2022-09-01T05:49:07;98395.19;;;13.01
61977;BMP280;45905;50.570;10.428;2022-09-01T05:51:43;98393.31;;;13.11
61977;BMP280;45905;50.570;10.428;2022-09-01T05:54:19;98400.28;;;13.24
61977;BMP280;45905;50.570;10.428;2022-09-01T05:56:49;98394.22;;;13.33
61977;BMP280;45905;50.570;10.428;2022-09-01T05:59:20;98387.72;;;13.38
61977;BMP280;45905;50.570;10.428;2022-09-01T06:01:58;98394.06;;;13.42
61977;BMP280;45905;50.570;10.428;2022-09-01T06:04:27;98397.75;;;13.48
61977;BMP280;45905;50.570;10.428;2022-09-01T06:07:01;98386.09;;;13.53
61977;BMP280;45905;50.570;10.428;2022-09-01T06:09:41;98401.84;;;13.64
61977;BMP280;45905;50.570;10.428;2022-09-01T06:12:10;98389.72;;;13.74
61977;BMP280;45905;50.570;10.428;2022-09-01T06:14:47;98384.78;;;13.80
61977;BMP280;45905;50.570;10.428;2022-09-01T06:17:23;98378.25;;;13.86
61977;BMP280;45905;50.570;10.428;2022-09-01T06:19:54;98372.34;;;13.93
61977;BMP280;45905;50.570;10.428;2022-09-01T06:22:26;98380.13;;;13.99
61977;BMP280;45905;50.570;10.428;2022-09-01T06:24:56;98377.88;;;14.04
61977;BMP280;45905;50.570;10.428;2022-09-01T06:27:35;98377.56;;;14.07
61977;BMP280;45905;50.570;10.428;2022-09-01T06:30:10;98383.56;;;14.14
61977;BMP280;45905;50.570;10.428;2022-09-01T06:32:57;98380.03;;;14.23
61977;BMP280;45905;50.570;10.428;2022-09-01T06:35:28;98382.25;;;14.26
61977;BMP280;45905;50.570;10.428;2022-09-01T06:37:57;98389.84;;;14.33
61977;BMP280;45905;50.570;10.428;2022-09-01T06:40:39;98381.06;;;14.44
61977;BMP280;45905;50.570;10.428;2022-09-01T06:43:09;98384.50;;;14.50
61977;BMP280;45905;50.570;10.428;2022-09-01T06:45:45;98380.47;;;14.56
61977;BMP280;45905;50.570;10.428;2022-09-01T06:48:22;98386.22;;;14.58
61977;BMP280;45905;50.570;10.428;2022-09-01T06:50:52;98384.63;;;14.57
61977;BMP280;45905;50.570;10.428;2022-09-01T06:53:42;98394.50;;;14.60
61977;BMP280;45905;50.570;10.428;2022-09-01T06:56:12;98391.25;;;14.66
61977;BMP280;45905;50.570;10.428;2022-09-01T06:58:42;98391.72;;;14.69
61977;BMP280;45905;50.570;10.428;2022-09-01T07:01:16;98390.88;;;14.76
61977;BMP280;45905;50.570;10.428;2022-09-01T07:03:51;98390.81;;;14.84
61977;BMP280;45905;50.570;10.428;2022-09-01T07:06:32;98389.81;;;14.93
61977;BMP280;45905;50.570;10.428;2022-09-01T07:09:46;98393.03;;;14.95
61977;BMP280;45905;50.570;10.428;2022-09-01T07:12:42;98395.69;;;14.93
61977;BMP280;45905;50.570;10.428;2022-09-01T07:15:36;98398.22;;;15.01
61977;BMP280;45905;50.570;10.428;2022-09-01T07:18:26;98387.78;;;15.10
61977;BMP280;45905;50.570;10.428;2022-09-01T07:20:55;98396.19;;;15.19
61977;BMP280;45905;50.570;10.428;2022-09-01T07:23:45;98390.53;;;15.23
61977;BMP280;45905;50.570;10.428;2022-09-01T07:26:34;98389.25;;;15.27
61977;BMP280;45905;50.570;10.428;2022-09-01T07:29:04;98385.66;;;15.36
61977;BMP280;45905;50.570;10.428;2022-09-01T07:31:38;98391.31;;;15.46
61977;BMP280;45905;50.570;10.428;2022-09-01T07:34:27;98390.72;;;15.58
61977;BMP280;45905;50.570;10.428;2022-09-01T07:37:14;98393.00;;;15.67
61977;BMP280;45905;50.570;10.428;2022-09-01T07:40:10;98389.78;;;15.73
61977;BMP280;45905;50.570;10.428;2022-09-01T07:43:24;98391.38;;;15.74
61977;BMP280;45905;50.570;10.428;2022-09-01T07:46:03;98391.94;;;15.76
61977;BMP280;45905;50.570;10.428;2022-09-01T07:48:54;98379.00;;;15.77
61977;BMP280;45905;50.570;10.428;2022-09-01T07:51:43;98376.28;;;15.79
61977;BMP280;45905;50.570;10.428;2022-09-01T07:54:18;98385.78;;;15.84
61977;BMP280;45905;50.570;10.428;2022-09-01T07:56:47;98385.91;;;15.91
61977;BMP280;45905;50.570;10.428;2022-09-01T07:59:16;98382.81;;;15.95
61977;BMP280;45905;50.570;10.428;2022-09-01T08:01:52;98384.88;;;16.00
61977;BMP280;45905;50.570;10.428;2022-09-01T08:04:19;98385.06;;;15.98
61977;BMP280;45905;50.570;10.428;2022-09-01T08:06:49;98385.69;;;16.00
61977;BMP280;45905;50.570;10.428;2022-09-01T08:09:17;98393.59;;;16.05
61977;BMP280;45905;50.570;10.428;2022-09-01T08:12:01;98386.19;;;16.10
61977;BMP280;45905;50.570;10.428;2022-09-01T08:14:32;98386.28;;;16.16
61977;BMP280;45905;50.570;10.428;2022-09-01T08:17:00;98397.28;;;16.17
61977;BMP280;45905;50.570;10.428;2022-09-01T08:19:44;98395.94;;;16.21
61977;BMP280;45905;50.570;10.428;2022-09-01T08:22:20;98384.41;;;16.24
61977;BMP280;45905;50.570;10.428;2022-09-01T08:25:00;98378.56;;;16.30
61977;BMP280;45905;50.570;10.428;2022-09-01T08:27:27;98374.16;;;16.39
61977;BMP280;45905;50.570;10.428;2022-09-01T08:29:56;98376.00;;;16.44
61977;BMP280;45905;50.570;10.428;2022-09-01T08:32:23;98381.97;;;16.51
61977;BMP280;45905;50.570;10.428;2022-09-01T08:34:51;98377.91;;;16.57
61977;BMP280;45905;50.570;10.428;2022-09-01T08:37:19;98370.31;;;16.63
61977;BMP280;45905;50.570;10.428;2022-09-01T08:39:47;98380.22;;;16.72
61977;BMP280;45905;50.570;10.428;2022-09-01T08:48:44;98372.34;;;17.08
61977;BMP280;45905;50.570;10.428;2022-09-01T08:52:10;98379.97;;;17.22
61977;BMP280;45905;50.570;10.428;2022-09-01T08:54:50;98369.41;;;17.32
61977;BMP280;45905;50.570;10.428;2022-09-01T08:57:35;98380.72;;;17.43
61977;BMP280;45905;50.570;10.428;2022-09-01T09:00:25;98371.38;;;17.57
61977;BMP280;45905;50.570;10.428;2022-09-01T09:09:36;98369.84;;;17.95
61977;BMP280;45905;50.570;10.428;2022-09-01T09:12:36;98351.97;;;18.08
61977;BMP280;45905;50.570;10.428;2022-09-01T09:15:58;98355.97;;;18.23
61977;BMP280;45905;50.570;10.428;2022-09-01T09:18:43;98352.50;;;18.36
61977;BMP280;45905;50.570;10.428;2022-09-01T09:21:41;98351.16;;;18.47
61977;BMP280;45905;50.570;10.428;2022-09-01T09:24:49;98358.06;;;18.59
61977;BMP280;45905;50.570;10.428;2022-09-01T09:30:00;98345.72;;;18.75
61977;BMP280;45905;50.570;10.428;2022-09-01T09:32:58;98358.34;;;18.83
61977;BMP280;45905;50.570;10.428;2022-09-01T09:35:51;98350.50;;;18.91
61977;BMP280;45905;50.570;10.428;2022-09-01T09:38:24;98355.63;;;18.97
61977;BMP280;45905;50.570;10.428;2022-09-01T09:41:20;98353.06;;;19.03
61977;BMP280;45905;50.570;10.428;2022-09-01T09:44:25;98353.84;;;19.10
61977;BMP280;45905;50.570;10.428;2022-09-01T09:46:53;98351.50;;;19.15
61977;BMP280;45905;50.570;10.428;2022-09-01T09:49:28;98351.28;;;19.23
61977;BMP280;45905;50.570;10.428;2022-09-01T09:57:38;98348.53;;;19.43
61977;BMP280;45905;50.570;10.428;2022-09-01T10:00:31;98344.97;;;19.50
61977;BMP280;45905;50.570;10.428;2022-09-01T10:03:09;98346.56;;;19.58
61977;BMP280;45905;50.570;10.428;2022-09-01T10:05:48;98342.19;;;19.65
61977;BMP280;45905;50.570;10.428;2022-09-01T10:10:54;98333.88;;;19.75
61977;BMP280;45905;50.570;10.428;2022-09-01T10:13:27;98336.22;;;19.83
61977;BMP280;45905;50.570;10.428;2022-09-01T10:16:21;98338.56;;;19.91
61977;BMP280;45905;50.570;10.428;2022-09-01T10:18:55;98340.31;;;19.97
61977;BMP280;45905;50.570;10.428;2022-09-01T10:21:36;98340.88;;;20.05
61977;BMP280;45905;50.570;10.428;2022-09-01T10:24:37;98325.03;;;20.14
61977;BMP280;45905;50.570;10.428;2022-09-01T10:27:24;98323.81;;;20.23
61977;BMP280;45905;50.570;10.428;2022-09-01T10:30:18;98329.50;;;20.31
61977;BMP280;45905;50.570;10.428;2022-09-01T10:32:53;98324.38;;;20.38
61977;BMP280;45905;50.570;10.428;2022-09-01T10:35:29;98318.19;;;20.45
61977;BMP280;45905;50.570;10.428;2022-09-01T10:38:02;98319.72;;;20.52
61977;BMP280;45905;50.570;10.428;2022-09-01T10:40:37;98324.03;;;20.58
61977;BMP280;45905;50.570;10.428;2022-09-01T10:51:57;98318.56;;;20.79
61977;BMP280;45905;50.570;10.428;2022-09-01T11:06:00;98319.81;;;21.00
61977;BMP280;45905;50.570;10.428;2022-09-01T11:08:59;98322.53;;;21.05
61977;BMP280;45905;50.570;10.428;2022-09-01T11:11:46;98315.19;;;21.08
61977;BMP280;45905;50.570;10.428;2022-09-01T11:14:24;98314.38;;;21.14
61977;BMP280;45905;50.570;10.428;2022-09-01T11:17:14;98314.75;;;21.18
61977;BMP280;45905;50.570;10.428;2022-09-01T11:20:08;98319.69;;;21.19
61977;BMP280;45905;50.570;10.428;2022-09-01T11:22:45;98310.91;;;21.26
61977;BMP280;45905;50.570;10.428;2022-09-01T11:25:50;98307.63;;;21.37
61977;BMP280;45905;50.570;10.428;2022-09-01T11:28:41;98305.50;;;21.52
61977;BMP280;45905;50.570;10.428;2022-09-01T11:31:27;98301.88;;;21.59
61977;BMP280;45905;50.570;10.428;2022-09-01T11:34:02;98304.38;;;21.65
61977;BMP280;45905;50.570;10.428;2022-09-01T11:36:46;98309.25;;;21.73
61977;BMP280;45905;50.570;10.428;2022-09-01T11:42:02;98301.59;;;21.84
61977;BMP280;45905;50.570;10.428;2022-09-01T11:47:24;98307.84;;;21.95
61977;BMP280;45905;50.570;10.428;2022-09-01T11:50:26;98288.94;;;22.00
61977;BMP280;45905;50.570;10.428;2022-09-01T11:53:01;98288.72;;;22.02
61977;BMP280;45905;50.570;10.428;2022-09-01T11:55:46;98289.63;;;22.07
61977;BMP280;45905;50.570;10.428;2022-09-01T11:58:31;98280.16;;;22.19
61977;BMP280;45905;50.570;10.428;2022-09-01T12:01:37;98284.72;;;22.35
61977;BMP280;45905;50.570;10.428;2022-09-01T12:04:29;98274.13;;;22.54
61977;BMP280;45905;50.570;10.428;2022-09-01T12:07:04;98284.19;;;22.73
61977;BMP280;45905;50.570;10.428;2022-09-01T12:09:42;98281.19;;;22.87
61977;BMP280;45905;50.570;10.428;2022-09-01T12:12:37;98283.03;;;23.09
61977;BMP280;45905;50.570;10.428;2022-09-01T12:15:23;98284.59;;;23.21
61977;BMP280;45905;50.570;10.428;2022-09-01T12:17:52;98271.00;;;23.25
61977;BMP280;45905;50.570;10.428;2022-09-01T12:20:29;98270.91;;;23.32
61977;BMP280;45905;50.570;10.428;2022-09-01T12:22:59;98270.25;;;23.36
61977;BMP280;45905;50.570;10.428;2022-09-01T12:25:31;98264.28;;;23.47
61977;BMP280;45905;50.570;10.428;2022-09-01T12:28:03;98261.25;;;23.50
61977;BMP280;45905;50.570;10.428;2022-09-01T12:30:41;98263.81;;;23.50
61977;BMP280;45905;50.570;10.428;2022-09-01T12:33:11;98261.16;;;23.45
61977;BMP280;45905;50.570;10.428;2022-09-01T12:36:28;98248.75;;;23.47
61977;BMP280;45905;50.570;10.428;2022-09-01T12:41:47;98243.72;;;23.40
61977;BMP280;45905;50.570;10.428;2022-09-01T12:47:13;98242.47;;;23.43
61977;BMP280;45905;50.570;10.428;2022-09-01T12:50:30;98245.84;;;23.54
61977;BMP280;45905;50.570;10.428;2022-09-01T12:53:03;98235.25;;;23.67
61977;BMP280;45905;50.570;10.428;2022-09-01T12:55:38;98229.25;;;23.78
61977;BMP280;45905;50.570;10.428;2022-09-01T12:58:23;98232.13;;;23.92
61977;BMP280;45905;50.570;10.428;2022-09-01T13:01:05;98230.78;;;24.01
61977;BMP280;45905;50.570;10.428;2022-09-01T13:04:06;98241.56;;;24.10
61977;BMP280;45905;50.570;10.428;2022-09-01T13:06:35;98233.75;;;24.21
61977;BMP280;45905;50.570;10.428;2022-09-01T13:09:03;98227.25;;;24.34
61977;BMP280;45905;50.570;10.428;2022-09-01T13:11:30;98231.59;;;24.45
61977;BMP280;45905;50.570;10.428;2022-09-01T13:14:17;98228.38;;;24.66
61977;BMP280;45905;50.570;10.428;2022-09-01T13:16:45;98206.22;;;24.74
61977;BMP280;45905;50.570;10.428;2022-09-01T13:19:12;98206.78;;;24.76
61977;BMP280;45905;50.570;10.428;2022-09-01T13:21:52;98206.53;;;24.94
61977;BMP280;45905;50.570;10.428;2022-09-01T13:24:19;98207.78;;;25.07
61977;BMP280;45905;50.570;10.428;2022-09-01T13:26:51;98202.91;;;25.27
61977;BMP280;45905;50.570;10.428;2022-09-01T13:29:43;98193.09;;;25.50
61977;BMP280;45905;50.570;10.428;2022-09-01T13:32:11;98195.56;;;25.61
61977;BMP280;45905;50.570;10.428;2022-09-01T13:34:49;98201.81;;;25.65
61977;BMP280;45905;50.570;10.428;2022-09-01T13:37:22;98203.91;;;25.63
61977;BMP280;45905;50.570;10.428;2022-09-01T13:39:49;98195.88;;;25.44
61977;BMP280;45905;50.570;10.428;2022-09-01T13:42:17;98200.75;;;25.24
61977;BMP280;45905;50.570;10.428;2022-09-01T13:44:45;98206.75;;;25.08
61977;BMP280;45905;50.570;10.428;2022-09-01T13:47:15;98208.31;;;25.09
61977;BMP280;45905;50.570;10.428;2022-09-01T13:49:59;98202.34;;;25.09
61977;BMP280;45905;50.570;10.428;2022-09-01T13:52:54;98205.53;;;24.95
61977;BMP280;45905;50.570;10.428;2022-09-01T13:55:29;98206.06;;;24.81
61977;BMP280;45905;50.570;10.428;2022-09-01T13:57:57;98204.66;;;24.73
61977;BMP280;45905;50.570;10.428;2022-09-01T14:00:31;98201.06;;;24.74
61977;BMP280;45905;50.570;10.428;2022-09-01T14:03:06;98204.19;;;24.76
61977;BMP280;45905;50.570;10.428;2022-09-01T14:05:41;98206.63;;;24.67
61977;BMP280;45905;50.570;10.428;2022-09-01T14:08:10;98201.25;;;24.57
61977;BMP280;45905;50.570;10.428;2022-09-01T14:10:43;98204.13;;;24.44
61977;BMP280;45905;50.570;10.428;2022-09-01T14:13:12;98201.91;;;24.36
61977;BMP280;45905;50.570;10.428;2022-09-01T14:15:39;98201.97;;;24.25
61977;BMP280;45905;50.570;10.428;2022-09-01T14:18:07;98201.03;;;24.15
61977;BMP280;45905;50.570;10.428;2022-09-01T14:20:37;98199.50;;;24.03
61977;BMP280;45905;50.570;10.428;2022-09-01T14:23:08;98198.97;;;23.90
61977;BMP280;45905;50.570;10.428;2022-09-01T14:25:46;98205.28;;;23.82
61977;BMP280;45905;50.570;10.428;2022-09-01T14:28:15;98204.25;;;23.83
61977;BMP280;45905;50.570;10.428;2022-09-01T14:30:48;98194.41;;;23.80
61977;BMP280;45905;50.570;10.428;2022-09-01T14:33:19;98194.97;;;23.71
61977;BMP280;45905;50.570;10.428;2022-09-01T14:35:50;98199.47;;;23.64
61977;BMP280;45905;50.570;10.428;2022-09-01T14:38:17;98196.34;;;23.62
61977;BMP280;45905;50.570;10.428;2022-09-01T14:40:47;98193.66;;;23.57
61977;BMP280;45905;50.570;10.428;2022-09-01T14:43:15;98193.09;;;23.55
61977;BMP280;45905;50.570;10.428;2022-09-01T14:45:43;98193.09;;;23.55
61977;BMP280;45905;50.570;10.428;2022-09-01T14:48:15;98190.63;;;23.60
61977;BMP280;45905;50.570;10.428;2022-09-01T14:50:47;98192.28;;;23.66
61977;BMP280;45905;50.570;10.428;2022-09-01T14:53:14;98189.47;;;23.68
61977;BMP280;45905;50.570;10.428;2022-09-01T14:55:42;98181.50;;;23.69
61977;BMP280;45905;50.570;10.428;2022-09-01T14:58:10;98177.88;;;23.70
61977;BMP280;45905;50.570;10.428;2022-09-01T15:00:37;98179.06;;;23.52
61977;BMP280;45905;50.570;10.428;2022-09-01T15:03:05;98172.75;;;23.48
61977;BMP280;45905;50.570;10.428;2022-09-01T15:05:34;98176.34;;;23.47
61977;BMP280;45905;50.570;10.428;2022-09-01T15:08:08;98178.94;;;23.47
61977;BMP280;45905;50.570;10.428;2022-09-01T15:10:41;98179.50;;;23.49
61977;BMP280;45905;50.570;10.428;2022-09-01T15:13:09;98173.88;;;23.52
61977;BMP280;45905;50.570;10.428;2022-09-01T15:15:37;98174.19;;;23.55
61977;BMP280;45905;50.570;10.428;2022-09-01T15:18:05;98174.19;;;23.55
61977;BMP280;45905;50.570;10.428;2022-09-01T15:20:32;98173.97;;;23.56
61977;BMP280;45905;50.570;10.428;2022-09-01T15:23:23;98178.78;;;23.64
61977;BMP280;45905;50.570;10.428;2022-09-01T15:25:54;98168.56;;;23.69
61977;BMP280;45905;50.570;10.428;2022-09-01T15:28:21;98167.41;;;23.76
61977;BMP280;45905;50.570;10.428;2022-09-01T15:30:51;98162.41;;;23.86
61977;BMP280;45905;50.570;10.428;2022-09-01T15:33:20;98169.59;;;23.95
61977;BMP280;45905;50.570;10.428;2022-09-01T15:35:47;98164.50;;;24.00
61977;BMP280;45905;50.570;10.428;2022-09-01T15:38:15;98167.81;;;23.96
61977;BMP280;45905;50.570;10.428;2022-09-01T15:40:47;98161.03;;;23.95
61977;BMP280;45905;50.570;10.428;2022-09-01T15:43:26;98168.16;;;23.88